This demonstration page uses our WeatherBlox Daily Observations layout. Learn more.

41.55636, -103.73856

Hourly Observations for August 30, 2019

Temp ( °F °C ) Dew Point ( °F °C ) Humidity (%) Winds ( mph kmh ) Pressure ( in mb ) Visibility ( mi km ) Precip ( " mm )
12:58 am 00:58 Clear 70 21.3 47 8.5 44 44 E 10 17 30.08 1019 10 16.0934 0 0
1:58 am 01:58 Clear 64 17.9 48 8.8 55 55 ESE 12 19 30.09 1019 10 16.0934 0 0
2:58 am 02:58 Clear 61 16.1 47 8.3 60 60 SSE 8 13 30.1 1019 10 16.0934 0 0
3:58 am 03:58 Clear 58 14.4 47 8.5 68 68 SW 6 9 30.1 1019 10 16.0934 0 0
4:58 am 04:58 Clear 56 13.3 47 8.2 71 71 Calm 30.13 1020 10 16.0934 0 0
5:58 am 05:58 Clear 56 13.5 46 7.8 69 69 SE 14 22 30.1 1019 10 16.0934 0 0
6:58 am 06:58 Clear 55 12.8 46 7.5 70 70 SE 12 19 30.11 1020 10 16.0934 0 0
7:58 am 07:58 Clear 55 13 45 7.4 69 69 SE 10 17 30.1 1019 10 16.0934 0 0
8:58 am 08:58 Clear 55 12.6 46 7.8 73 73 SSE 14 22 30.08 1019 10 16.0934 0 0
9:58 am 09:58 Clear 55 12.8 46 8 73 73 SSE 18 30 30.07 1018 10 16.0934 0 0
10:58 am 10:58 Mostly Cloudy 56 13.3 47 8.5 73 73 S 13 20 30.09 1019 10 16.0934 0 0
11:58 am 11:58 Mostly Cloudy 57 13.9 47 8.3 69 69 SSE 13 20 30.09 1019 10 16.0934 0 0
12:58 pm 12:58 Mostly Cloudy 56 13.6 48 8.7 72 72 SSE 5 7 30.12 1020 10 16.0934 0 0
1:58 pm 13:58 Partly Cloudy 58 14.5 44 6.4 59 59 S 10 17 30.13 1020 10 16.0934 0 0
2:58 pm 14:58 Mostly Cloudy 60 15.3 45 7.3 59 59 S 18 30 30.13 1020 10 16.0934 0 0
3:58 pm 15:58 Mostly Sunny 65 18.5 49 9.7 57 57 S 21 33 30.09 1019 10 16.0934 0 0
4:58 pm 16:58 Mostly Cloudy 67 19.7 53 11.4 59 59 SSW 16 26 30.1 1019 10 16.0934 0 0
5:58 pm 17:58 Mostly Cloudy 71 21.5 56 13.1 59 59 S 15 24 30.07 1018 10 16.0934 0 0
6:58 pm 18:58 Mostly Sunny 74 23.3 55 12.5 51 51 S 21 33 30.05 1018 10 16.0934 0 0
7:58 pm 19:58 Sunny 78 25.3 54 12.2 44 44 SSE 18 30 30.01 1016 10 16.0934 0 0
8:58 pm 20:58 Sunny 79 26.1 54 12.2 42 42 S 15 24 29.99 1016 10 16.0934 0 0
9:58 pm 21:58 Sunny 79 26.2 53 11.9 41 41 SSE 18 30 29.97 1015 10 16.0934 0 0
10:58 pm 22:58 Sunny 77 25.2 53 11.5 42 42 SSE 15 24 29.96 1015 10 16.0934 0 0
11:58 pm 23:58 Cloudy with Light Rain 73 22.9 57 14.1 58 58 NNE 3 6 30.04 1017 10 16.0934 0 0

Powered by AerisWeather